sensor_id;sensor_type;location;lat;lon;timestamp;P1;durP1;ratioP1;P2;durP2;ratioP2
10162;SDS011;5123;52.556;13.384;2023-04-27T00:01:47;7.37;;;2.83;;
10162;SDS011;5123;52.556;13.384;2023-04-27T00:04:20;5.17;;;2.70;;
10162;SDS011;5123;52.556;13.384;2023-04-27T00:06:53;3.63;;;2.83;;
10162;SDS011;5123;52.556;13.384;2023-04-27T00:09:26;6.40;;;2.70;;
10162;SDS011;5123;52.556;13.384;2023-04-27T00:12:01;4.07;;;2.70;;
10162;SDS011;5123;52.556;13.384;2023-04-27T00:14:34;3.73;;;2.90;;
10162;SDS011;5123;52.556;13.384;2023-04-27T00:17:08;5.30;;;2.73;;
10162;SDS011;5123;52.556;13.384;2023-04-27T00:19:41;7.10;;;3.27;;
10162;SDS011;5123;52.556;13.384;2023-04-27T00:22:14;3.60;;;2.60;;
10162;SDS011;5123;52.556;13.384;2023-04-27T00:24:49;4.23;;;2.60;;
10162;SDS011;5123;52.556;13.384;2023-04-27T00:27:21;4.23;;;2.60;;
10162;SDS011;5123;52.556;13.384;2023-04-27T00:29:56;2.90;;;2.20;;
10162;SDS011;5123;52.556;13.384;2023-04-27T00:32:31;4.33;;;2.70;;
10162;SDS011;5123;52.556;13.384;2023-04-27T00:35:04;10.90;;;3.33;;
10162;SDS011;5123;52.556;13.384;2023-04-27T00:37:37;4.20;;;2.67;;
10162;SDS011;5123;52.556;13.384;2023-04-27T00:40:10;3.00;;;2.33;;
10162;SDS011;5123;52.556;13.384;2023-04-27T00:42:45;4.87;;;2.40;;
10162;SDS011;5123;52.556;13.384;2023-04-27T00:45:18;4.67;;;2.43;;
10162;SDS011;5123;52.556;13.384;2023-04-27T00:47:53;6.80;;;2.93;;
10162;SDS011;5123;52.556;13.384;2023-04-27T00:50:28;6.13;;;3.07;;
10162;SDS011;5123;52.556;13.384;2023-04-27T00:53:01;5.63;;;3.30;;
10162;SDS011;5123;52.556;13.384;2023-04-27T00:55:34;7.97;;;2.67;;
10162;SDS011;5123;52.556;13.384;2023-04-27T00:58:07;5.40;;;2.77;;
10162;SDS011;5123;52.556;13.384;2023-04-27T01:00:40;2.90;;;2.37;;
10162;SDS011;5123;52.556;13.384;2023-04-27T01:03:14;5.63;;;3.00;;
10162;SDS011;5123;52.556;13.384;2023-04-27T01:05:48;5.33;;;2.93;;
10162;SDS011;5123;52.556;13.384;2023-04-27T01:08:23;4.67;;;2.63;;
10162;SDS011;5123;52.556;13.384;2023-04-27T01:10:56;4.47;;;2.53;;
10162;SDS011;5123;52.556;13.384;2023-04-27T01:13:29;4.73;;;2.70;;
10162;SDS011;5123;52.556;13.384;2023-04-27T01:16:02;5.40;;;2.50;;
10162;SDS011;5123;52.556;13.384;2023-04-27T01:18:36;6.07;;;2.53;;
10162;SDS011;5123;52.556;13.384;2023-04-27T01:21:11;4.53;;;2.53;;
10162;SDS011;5123;52.556;13.384;2023-04-27T01:23:47;12.43;;;2.80;;
10162;SDS011;5123;52.556;13.384;2023-04-27T01:26:20;3.13;;;2.63;;
10162;SDS011;5123;52.556;13.384;2023-04-27T01:28:53;4.00;;;2.70;;
10162;SDS011;5123;52.556;13.384;2023-04-27T01:31:26;3.97;;;2.40;;
10162;SDS011;5123;52.556;13.384;2023-04-27T01:33:59;3.97;;;2.40;;
10162;SDS011;5123;52.556;13.384;2023-04-27T01:36:36;4.93;;;2.80;;
10162;SDS011;5123;52.556;13.384;2023-04-27T01:39:12;4.40;;;2.40;;
10162;SDS011;5123;52.556;13.384;2023-04-27T01:41:46;3.63;;;2.47;;
10162;SDS011;5123;52.556;13.384;2023-04-27T01:44:18;9.70;;;2.97;;
10162;SDS011;5123;52.556;13.384;2023-04-27T01:46:53;5.47;;;2.80;;
10162;SDS011;5123;52.556;13.384;2023-04-27T01:49:26;4.20;;;2.60;;
10162;SDS011;5123;52.556;13.384;2023-04-27T01:51:59;5.43;;;2.63;;
10162;SDS011;5123;52.556;13.384;2023-04-27T01:54:33;6.97;;;2.73;;
10162;SDS011;5123;52.556;13.384;2023-04-27T01:57:09;4.30;;;2.50;;
10162;SDS011;5123;52.556;13.384;2023-04-27T01:59:42;3.07;;;2.27;;
10162;SDS011;5123;52.556;13.384;2023-04-27T02:02:15;4.73;;;2.47;;
10162;SDS011;5123;52.556;13.384;2023-04-27T02:04:48;6.70;;;2.47;;
10162;SDS011;5123;52.556;13.384;2023-04-27T02:07:21;7.90;;;2.67;;
10162;SDS011;5123;52.556;13.384;2023-04-27T02:09:55;4.17;;;3.00;;
10162;SDS011;5123;52.556;13.384;2023-04-27T02:12:28;3.60;;;2.47;;
10162;SDS011;5123;52.556;13.384;2023-04-27T02:15:01;7.40;;;2.87;;
10162;SDS011;5123;52.556;13.384;2023-04-27T02:17:46;6.80;;;2.90;;
10162;SDS011;5123;52.556;13.384;2023-04-27T02:20:19;4.07;;;2.60;;
10162;SDS011;5123;52.556;13.384;2023-04-27T02:22:52;5.23;;;2.40;;
10162;SDS011;5123;52.556;13.384;2023-04-27T02:25:29;3.83;;;2.30;;
10162;SDS011;5123;52.556;13.384;2023-04-27T02:28:02;5.87;;;2.50;;
10162;SDS011;5123;52.556;13.384;2023-04-27T02:30:35;5.83;;;2.50;;
10162;SDS011;5123;52.556;13.384;2023-04-27T02:33:08;4.63;;;2.13;;
10162;SDS011;5123;52.556;13.384;2023-04-27T02:35:42;5.93;;;2.13;;
10162;SDS011;5123;52.556;13.384;2023-04-27T02:38:17;2.93;;;2.33;;
10162;SDS011;5123;52.556;13.384;2023-04-27T02:40:53;3.70;;;2.43;;
10162;SDS011;5123;52.556;13.384;2023-04-27T02:43:26;5.27;;;2.70;;
10162;SDS011;5123;52.556;13.384;2023-04-27T02:46:01;5.00;;;3.13;;
10162;SDS011;5123;52.556;13.384;2023-04-27T02:48:33;3.30;;;2.40;;
10162;SDS011;5123;52.556;13.384;2023-04-27T02:51:06;6.13;;;2.77;;
10162;SDS011;5123;52.556;13.384;2023-04-27T02:53:39;6.73;;;2.60;;
10162;SDS011;5123;52.556;13.384;2023-04-27T02:56:14;4.20;;;2.67;;
10162;SDS011;5123;52.556;13.384;2023-04-27T02:58:49;5.17;;;2.83;;
10162;SDS011;5123;52.556;13.384;2023-04-27T03:01:22;4.83;;;2.47;;
10162;SDS011;5123;52.556;13.384;2023-04-27T03:03:55;4.00;;;2.70;;
10162;SDS011;5123;52.556;13.384;2023-04-27T03:06:29;5.13;;;3.67;;
10162;SDS011;5123;52.556;13.384;2023-04-27T03:09:02;4.93;;;2.87;;
10162;SDS011;5123;52.556;13.384;2023-04-27T03:11:37;3.87;;;2.17;;
10162;SDS011;5123;52.556;13.384;2023-04-27T03:14:10;5.13;;;2.50;;
10162;SDS011;5123;52.556;13.384;2023-04-27T03:16:45;3.93;;;2.50;;
10162;SDS011;5123;52.556;13.384;2023-04-27T03:19:18;9.43;;;2.83;;
10162;SDS011;5123;52.556;13.384;2023-04-27T03:21:51;5.37;;;2.90;;
10162;SDS011;5123;52.556;13.384;2023-04-27T03:24:25;6.53;;;2.40;;
10162;SDS011;5123;52.556;13.384;2023-04-27T03:26:59;9.20;;;2.90;;
10162;SDS011;5123;52.556;13.384;2023-04-27T03:29:32;4.30;;;2.80;;
10162;SDS011;5123;52.556;13.384;2023-04-27T03:32:05;3.17;;;2.23;;
10162;SDS011;5123;52.556;13.384;2023-04-27T03:34:38;6.20;;;2.50;;
10162;SDS011;5123;52.556;13.384;2023-04-27T03:37:14;6.70;;;2.97;;
10162;SDS011;5123;52.556;13.384;2023-04-27T03:39:48;3.10;;;2.80;;
10162;SDS011;5123;52.556;13.384;2023-04-27T03:42:22;6.70;;;2.80;;
10162;SDS011;5123;52.556;13.384;2023-04-27T03:44:55;5.00;;;2.40;;
10162;SDS011;5123;52.556;13.384;2023-04-27T03:47:28;5.87;;;2.47;;
10162;SDS011;5123;52.556;13.384;2023-04-27T03:50:01;5.27;;;2.90;;
10162;SDS011;5123;52.556;13.384;2023-04-27T03:52:34;7.37;;;3.30;;
10162;SDS011;5123;52.556;13.384;2023-04-27T03:55:07;4.93;;;2.80;;
10162;SDS011;5123;52.556;13.384;2023-04-27T03:57:42;5.53;;;2.63;;
10162;SDS011;5123;52.556;13.384;2023-04-27T04:00:15;5.77;;;2.60;;
10162;SDS011;5123;52.556;13.384;2023-04-27T04:02:49;11.23;;;2.50;;
10162;SDS011;5123;52.556;13.384;2023-04-27T04:05:23;6.47;;;2.80;;
10162;SDS011;5123;52.556;13.384;2023-04-27T04:07:58;4.30;;;2.37;;
10162;SDS011;5123;52.556;13.384;2023-04-27T04:10:31;5.60;;;2.80;;
10162;SDS011;5123;52.556;13.384;2023-04-27T04:13:05;3.20;;;2.60;;
10162;SDS011;5123;52.556;13.384;2023-04-27T04:15:38;3.30;;;2.40;;
10162;SDS011;5123;52.556;13.384;2023-04-27T04:18:11;4.00;;;2.43;;
10162;SDS011;5123;52.556;13.384;2023-04-27T04:20:46;5.87;;;2.70;;
10162;SDS011;5123;52.556;13.384;2023-04-27T04:23:19;5.63;;;2.60;;
10162;SDS011;5123;52.556;13.384;2023-04-27T04:25:52;6.10;;;2.50;;
10162;SDS011;5123;52.556;13.384;2023-04-27T04:28:30;4.17;;;2.60;;
10162;SDS011;5123;52.556;13.384;2023-04-27T04:31:02;3.57;;;2.40;;
10162;SDS011;5123;52.556;13.384;2023-04-27T04:33:37;7.53;;;3.93;;
10162;SDS011;5123;52.556;13.384;2023-04-27T04:36:10;4.00;;;2.70;;
10162;SDS011;5123;52.556;13.384;2023-04-27T04:38:42;7.53;;;2.53;;
10162;SDS011;5123;52.556;13.384;2023-04-27T04:41:17;2.77;;;2.47;;
10162;SDS011;5123;52.556;13.384;2023-04-27T04:43:51;5.03;;;2.83;;
10162;SDS011;5123;52.556;13.384;2023-04-27T04:46:25;3.53;;;2.90;;
10162;SDS011;5123;52.556;13.384;2023-04-27T04:48:59;4.37;;;3.00;;
10162;SDS011;5123;52.556;13.384;2023-04-27T04:51:32;6.40;;;2.90;;
10162;SDS011;5123;52.556;13.384;2023-04-27T04:54:05;6.37;;;3.27;;
10162;SDS011;5123;52.556;13.384;2023-04-27T04:56:38;5.10;;;2.63;;
10162;SDS011;5123;52.556;13.384;2023-04-27T04:59:13;11.27;;;3.30;;
10162;SDS011;5123;52.556;13.384;2023-04-27T05:01:46;7.00;;;3.37;;
10162;SDS011;5123;52.556;13.384;2023-04-27T05:04:19;5.80;;;3.17;;
10162;SDS011;5123;52.556;13.384;2023-04-27T05:06:53;7.30;;;3.20;;
10162;SDS011;5123;52.556;13.384;2023-04-27T05:09:26;6.67;;;2.70;;
10162;SDS011;5123;52.556;13.384;2023-04-27T05:12:00;5.93;;;2.90;;
10162;SDS011;5123;52.556;13.384;2023-04-27T05:14:34;4.67;;;3.13;;
10162;SDS011;5123;52.556;13.384;2023-04-27T05:17:07;5.13;;;2.80;;
10162;SDS011;5123;52.556;13.384;2023-04-27T05:19:40;3.87;;;2.90;;
10162;SDS011;5123;52.556;13.384;2023-04-27T05:22:16;5.80;;;2.90;;
10162;SDS011;5123;52.556;13.384;2023-04-27T05:24:49;4.50;;;3.00;;
10162;SDS011;5123;52.556;13.384;2023-04-27T05:27:22;8.10;;;3.10;;
10162;SDS011;5123;52.556;13.384;2023-04-27T05:29:57;5.33;;;3.33;;
10162;SDS011;5123;52.556;13.384;2023-04-27T05:32:30;8.10;;;3.30;;
10162;SDS011;5123;52.556;13.384;2023-04-27T05:35:04;9.10;;;3.00;;
10162;SDS011;5123;52.556;13.384;2023-04-27T05:37:38;10.10;;;3.60;;
10162;SDS011;5123;52.556;13.384;2023-04-27T05:40:13;6.40;;;3.00;;
10162;SDS011;5123;52.556;13.384;2023-04-27T05:42:46;4.87;;;3.37;;
10162;SDS011;5123;52.556;13.384;2023-04-27T05:45:21;7.00;;;3.50;;
10162;SDS011;5123;52.556;13.384;2023-04-27T05:47:55;5.07;;;3.17;;
10162;SDS011;5123;52.556;13.384;2023-04-27T05:50:28;6.20;;;3.10;;
10162;SDS011;5123;52.556;13.384;2023-04-27T05:53:01;5.47;;;2.73;;
10162;SDS011;5123;52.556;13.384;2023-04-27T05:55:36;7.00;;;3.10;;
10162;SDS011;5123;52.556;13.384;2023-04-27T05:58:09;4.53;;;3.40;;
10162;SDS011;5123;52.556;13.384;2023-04-27T06:00:44;4.03;;;2.97;;
10162;SDS011;5123;52.556;13.384;2023-04-27T06:03:18;4.53;;;2.53;;
10162;SDS011;5123;52.556;13.384;2023-04-27T06:05:52;6.37;;;2.90;;
10162;SDS011;5123;52.556;13.384;2023-04-27T06:08:29;6.03;;;3.37;;
10162;SDS011;5123;52.556;13.384;2023-04-27T06:11:02;7.57;;;2.80;;
10162;SDS011;5123;52.556;13.384;2023-04-27T06:13:35;4.50;;;3.40;;
10162;SDS011;5123;52.556;13.384;2023-04-27T06:16:10;6.50;;;3.07;;
10162;SDS011;5123;52.556;13.384;2023-04-27T06:18:42;4.77;;;3.03;;
10162;SDS011;5123;52.556;13.384;2023-04-27T06:21:15;6.87;;;3.10;;
10162;SDS011;5123;52.556;13.384;2023-04-27T06:23:48;4.97;;;2.20;;
10162;SDS011;5123;52.556;13.384;2023-04-27T06:26:21;3.00;;;2.30;;
10162;SDS011;5123;52.556;13.384;2023-04-27T06:28:55;2.83;;;1.93;;
10162;SDS011;5123;52.556;13.384;2023-04-27T06:31:30;4.97;;;2.50;;
10162;SDS011;5123;52.556;13.384;2023-04-27T06:34:02;5.50;;;1.97;;
10162;SDS011;5123;52.556;13.384;2023-04-27T06:36:37;4.37;;;2.40;;
10162;SDS011;5123;52.556;13.384;2023-04-27T06:39:10;3.63;;;2.60;;
10162;SDS011;5123;52.556;13.384;2023-04-27T06:41:46;4.83;;;2.23;;
10162;SDS011;5123;52.556;13.384;2023-04-27T06:44:19;3.27;;;2.40;;
10162;SDS011;5123;52.556;13.384;2023-04-27T06:46:53;5.40;;;2.70;;
10162;SDS011;5123;52.556;13.384;2023-04-27T06:49:26;4.73;;;2.50;;
10162;SDS011;5123;52.556;13.384;2023-04-27T06:52:00;5.83;;;3.00;;
10162;SDS011;5123;52.556;13.384;2023-04-27T06:54:33;3.20;;;2.10;;
10162;SDS011;5123;52.556;13.384;2023-04-27T06:57:06;3.33;;;2.37;;
10162;SDS011;5123;52.556;13.384;2023-04-27T06:59:39;5.07;;;2.67;;
10162;SDS011;5123;52.556;13.384;2023-04-27T07:02:13;1.50;;;1.40;;
10162;SDS011;5123;52.556;13.384;2023-04-27T07:04:46;4.70;;;2.67;;
10162;SDS011;5123;52.556;13.384;2023-04-27T07:07:19;3.07;;;2.50;;
10162;SDS011;5123;52.556;13.384;2023-04-27T07:09:52;3.70;;;2.63;;
10162;SDS011;5123;52.556;13.384;2023-04-27T07:12:26;3.33;;;2.33;;
10162;SDS011;5123;52.556;13.384;2023-04-27T07:14:58;4.37;;;2.70;;
10162;SDS011;5123;52.556;13.384;2023-04-27T07:17:34;7.60;;;2.50;;
10162;SDS011;5123;52.556;13.384;2023-04-27T07:20:07;4.50;;;1.90;;
10162;SDS011;5123;52.556;13.384;2023-04-27T07:22:40;5.70;;;3.10;;
10162;SDS011;5123;52.556;13.384;2023-04-27T07:25:15;4.70;;;2.70;;
10162;SDS011;5123;52.556;13.384;2023-04-27T07:27:48;8.30;;;2.57;;
10162;SDS011;5123;52.556;13.384;2023-04-27T07:30:21;4.00;;;2.10;;
10162;SDS011;5123;52.556;13.384;2023-04-27T07:32:56;4.07;;;2.47;;
10162;SDS011;5123;52.556;13.384;2023-04-27T07:35:29;3.33;;;2.00;;
10162;SDS011;5123;52.556;13.384;2023-04-27T07:38:02;7.03;;;2.60;;
10162;SDS011;5123;52.556;13.384;2023-04-27T07:40:35;4.30;;;2.40;;
10162;SDS011;5123;52.556;13.384;2023-04-27T07:43:08;1.90;;;1.70;;
10162;SDS011;5123;52.556;13.384;2023-04-27T07:45:40;3.40;;;2.37;;
10162;SDS011;5123;52.556;13.384;2023-04-27T07:48:15;3.30;;;2.40;;
10162;SDS011;5123;52.556;13.384;2023-04-27T07:50:48;3.97;;;2.30;;
10162;SDS011;5123;52.556;13.384;2023-04-27T07:53:21;4.93;;;2.67;;
10162;SDS011;5123;52.556;13.384;2023-04-27T07:55:54;5.97;;;2.20;;
10162;SDS011;5123;52.556;13.384;2023-04-27T07:58:27;5.20;;;2.20;;
10162;SDS011;5123;52.556;13.384;2023-04-27T08:01:08;3.07;;;2.00;;
10162;SDS011;5123;52.556;13.384;2023-04-27T08:03:42;3.67;;;2.23;;
10162;SDS011;5123;52.556;13.384;2023-04-27T08:06:16;5.07;;;2.30;;
10162;SDS011;5123;52.556;13.384;2023-04-27T08:08:50;2.00;;;1.90;;
10162;SDS011;5123;52.556;13.384;2023-04-27T08:11:28;4.33;;;2.10;;
10162;SDS011;5123;52.556;13.384;2023-04-27T08:14:02;3.90;;;2.57;;
10162;SDS011;5123;52.556;13.384;2023-04-27T08:16:34;3.57;;;2.23;;
10162;SDS011;5123;52.556;13.384;2023-04-27T08:19:12;4.00;;;2.53;;
10162;SDS011;5123;52.556;13.384;2023-04-27T08:21:50;4.53;;;2.50;;
10162;SDS011;5123;52.556;13.384;2023-04-27T08:24:23;3.43;;;2.50;;
10162;SDS011;5123;52.556;13.384;2023-04-27T08:26:56;4.87;;;2.50;;
10162;SDS011;5123;52.556;13.384;2023-04-27T08:29:29;7.93;;;2.70;;
10162;SDS011;5123;52.556;13.384;2023-04-27T08:32:02;5.07;;;2.77;;
10162;SDS011;5123;52.556;13.384;2023-04-27T08:34:38;5.03;;;2.73;;
10162;SDS011;5123;52.556;13.384;2023-04-27T08:37:11;2.33;;;1.90;;
10162;SDS011;5123;52.556;13.384;2023-04-27T08:39:45;4.37;;;2.67;;
10162;SDS011;5123;52.556;13.384;2023-04-27T08:42:18;4.77;;;2.33;;
10162;SDS011;5123;52.556;13.384;2023-04-27T08:44:52;4.73;;;2.70;;
10162;SDS011;5123;52.556;13.384;2023-04-27T08:47:25;2.73;;;2.10;;
10162;SDS011;5123;52.556;13.384;2023-04-27T08:50:13;3.83;;;2.57;;
10162;SDS011;5123;52.556;13.384;2023-04-27T08:52:46;4.03;;;2.27;;
10162;SDS011;5123;52.556;13.384;2023-04-27T08:55:19;5.03;;;2.90;;
10162;SDS011;5123;52.556;13.384;2023-04-27T08:57:52;4.10;;;2.70;;
10162;SDS011;5123;52.556;13.384;2023-04-27T09:00:26;5.10;;;2.30;;
10162;SDS011;5123;52.556;13.384;2023-04-27T09:02:58;4.50;;;3.40;;
10162;SDS011;5123;52.556;13.384;2023-04-27T09:05:36;9.30;;;2.70;;
10162;SDS011;5123;52.556;13.384;2023-04-27T09:08:23;3.87;;;2.03;;
10162;SDS011;5123;52.556;13.384;2023-04-27T09:10:55;4.43;;;2.47;;
10162;SDS011;5123;52.556;13.384;2023-04-27T09:13:33;5.63;;;3.03;;
10162;SDS011;5123;52.556;13.384;2023-04-27T09:16:10;4.93;;;2.97;;
10162;SDS011;5123;52.556;13.384;2023-04-27T09:18:43;3.13;;;2.23;;
10162;SDS011;5123;52.556;13.384;2023-04-27T09:21:22;6.83;;;2.73;;
10162;SDS011;5123;52.556;13.384;2023-04-27T09:24:08;3.67;;;2.30;;
10162;SDS011;5123;52.556;13.384;2023-04-27T09:26:47;2.87;;;2.23;;
10162;SDS011;5123;52.556;13.384;2023-04-27T09:29:30;3.17;;;2.40;;
10162;SDS011;5123;52.556;13.384;2023-04-27T09:32:12;6.00;;;2.30;;
10162;SDS011;5123;52.556;13.384;2023-04-27T09:34:47;3.47;;;2.43;;
10162;SDS011;5123;52.556;13.384;2023-04-27T09:37:21;3.77;;;2.23;;
10162;SDS011;5123;52.556;13.384;2023-04-27T09:39:54;4.17;;;1.80;;
10162;SDS011;5123;52.556;13.384;2023-04-27T09:42:27;3.93;;;2.00;;
10162;SDS011;5123;52.556;13.384;2023-04-27T09:45:00;3.00;;;1.93;;
10162;SDS011;5123;52.556;13.384;2023-04-27T09:47:33;2.27;;;1.73;;
10162;SDS011;5123;52.556;13.384;2023-04-27T09:50:06;5.77;;;2.43;;
10162;SDS011;5123;52.556;13.384;2023-04-27T09:52:42;2.53;;;2.07;;
10162;SDS011;5123;52.556;13.384;2023-04-27T09:55:15;5.20;;;2.40;;
10162;SDS011;5123;52.556;13.384;2023-04-27T09:57:52;4.63;;;2.90;;
10162;SDS011;5123;52.556;13.384;2023-04-27T10:00:32;5.90;;;2.80;;
10162;SDS011;5123;52.556;13.384;2023-04-27T10:03:14;6.00;;;3.03;;
10162;SDS011;5123;52.556;13.384;2023-04-27T10:05:56;3.97;;;2.37;;
10162;SDS011;5123;52.556;13.384;2023-04-27T10:08:36;4.27;;;2.33;;
10162;SDS011;5123;52.556;13.384;2023-04-27T10:11:13;2.00;;;1.73;;
10162;SDS011;5123;52.556;13.384;2023-04-27T10:13:49;4.37;;;2.20;;
10162;SDS011;5123;52.556;13.384;2023-04-27T10:16:25;3.90;;;2.20;;
10162;SDS011;5123;52.556;13.384;2023-04-27T10:18:58;2.43;;;2.20;;
10162;SDS011;5123;52.556;13.384;2023-04-27T10:21:30;2.93;;;2.10;;
10162;SDS011;5123;52.556;13.384;2023-04-27T10:24:11;3.00;;;1.83;;
10162;SDS011;5123;52.556;13.384;2023-04-27T10:26:45;2.67;;;2.10;;
10162;SDS011;5123;52.556;13.384;2023-04-27T10:29:18;4.10;;;2.00;;
10162;SDS011;5123;52.556;13.384;2023-04-27T10:31:51;2.57;;;2.13;;
10162;SDS011;5123;52.556;13.384;2023-04-27T10:34:25;5.40;;;2.53;;
10162;SDS011;5123;52.556;13.384;2023-04-27T10:37:03;4.67;;;2.73;;
10162;SDS011;5123;52.556;13.384;2023-04-27T10:39:38;2.77;;;1.90;;
10162;SDS011;5123;52.556;13.384;2023-04-27T10:42:26;5.80;;;2.30;;
10162;SDS011;5123;52.556;13.384;2023-04-27T10:44:59;3.07;;;1.97;;
10162;SDS011;5123;52.556;13.384;2023-04-27T10:47:36;3.50;;;2.10;;
10162;SDS011;5123;52.556;13.384;2023-04-27T10:50:10;2.07;;;1.87;;
10162;SDS011;5123;52.556;13.384;2023-04-27T10:52:44;3.13;;;1.97;;
10162;SDS011;5123;52.556;13.384;2023-04-27T10:55:20;2.20;;;1.90;;
10162;SDS011;5123;52.556;13.384;2023-04-27T10:57:53;2.43;;;1.90;;
10162;SDS011;5123;52.556;13.384;2023-04-27T11:00:27;5.73;;;2.07;;
10162;SDS011;5123;52.556;13.384;2023-04-27T11:03:08;2.57;;;1.90;;
10162;SDS011;5123;52.556;13.384;2023-04-27T11:05:42;5.13;;;2.00;;
10162;SDS011;5123;52.556;13.384;2023-04-27T11:08:17;4.37;;;2.37;;
10162;SDS011;5123;52.556;13.384;2023-04-27T11:10:52;3.30;;;2.20;;
10162;SDS011;5123;52.556;13.384;2023-04-27T11:13:25;3.83;;;2.53;;
10162;SDS011;5123;52.556;13.384;2023-04-27T11:15:59;3.57;;;2.47;;
10162;SDS011;5123;52.556;13.384;2023-04-27T11:18:32;6.33;;;1.93;;
10162;SDS011;5123;52.556;13.384;2023-04-27T11:21:08;5.07;;;1.73;;
10162;SDS011;5123;52.556;13.384;2023-04-27T11:23:41;2.70;;;2.00;;
10162;SDS011;5123;52.556;13.384;2023-04-27T11:26:16;5.13;;;2.17;;
10162;SDS011;5123;52.556;13.384;2023-04-27T11:28:59;3.50;;;2.20;;
10162;SDS011;5123;52.556;13.384;2023-04-27T11:31:41;3.37;;;1.80;;
10162;SDS011;5123;52.556;13.384;2023-04-27T11:34:18;3.07;;;2.17;;
10162;SDS011;5123;52.556;13.384;2023-04-27T11:36:56;4.50;;;1.80;;
10162;SDS011;5123;52.556;13.384;2023-04-27T11:39:35;2.50;;;2.20;;
10162;SDS011;5123;52.556;13.384;2023-04-27T11:42:18;9.30;;;2.80;;
10162;SDS011;5123;52.556;13.384;2023-04-27T11:44:52;3.03;;;1.83;;
10162;SDS011;5123;52.556;13.384;2023-04-27T11:47:25;2.83;;;1.87;;
10162;SDS011;5123;52.556;13.384;2023-04-27T11:49:59;4.43;;;2.37;;
10162;SDS011;5123;52.556;13.384;2023-04-27T11:52:33;4.77;;;2.23;;
10162;SDS011;5123;52.556;13.384;2023-04-27T11:55:07;3.30;;;1.90;;
10162;SDS011;5123;52.556;13.384;2023-04-27T11:57:47;9.10;;;2.90;;
10162;SDS011;5123;52.556;13.384;2023-04-27T12:00:20;4.60;;;2.10;;
10162;SDS011;5123;52.556;13.384;2023-04-27T12:02:56;2.93;;;2.30;;
10162;SDS011;5123;52.556;13.384;2023-04-27T12:05:29;2.70;;;1.80;;
10162;SDS011;5123;52.556;13.384;2023-04-27T12:08:03;2.93;;;2.10;;
10162;SDS011;5123;52.556;13.384;2023-04-27T12:10:36;10.60;;;2.47;;
10162;SDS011;5123;52.556;13.384;2023-04-27T12:13:10;3.00;;;2.00;;
10162;SDS011;5123;52.556;13.384;2023-04-27T12:15:43;5.93;;;2.23;;
10162;SDS011;5123;52.556;13.384;2023-04-27T12:18:16;2.53;;;1.87;;
10162;SDS011;5123;52.556;13.384;2023-04-27T12:20:52;3.33;;;2.00;;
10162;SDS011;5123;52.556;13.384;2023-04-27T12:23:25;4.07;;;2.07;;
10162;SDS011;5123;52.556;13.384;2023-04-27T12:25:58;2.27;;;1.90;;
10162;SDS011;5123;52.556;13.384;2023-04-27T12:28:33;3.30;;;2.20;;
10162;SDS011;5123;52.556;13.384;2023-04-27T12:31:05;3.40;;;1.93;;
10162;SDS011;5123;52.556;13.384;2023-04-27T12:33:39;2.87;;;2.20;;
10162;SDS011;5123;52.556;13.384;2023-04-27T12:36:11;3.77;;;2.23;;
10162;SDS011;5123;52.556;13.384;2023-04-27T12:38:44;2.20;;;2.00;;
10162;SDS011;5123;52.556;13.384;2023-04-27T12:41:18;4.57;;;2.00;;
10162;SDS011;5123;52.556;13.384;2023-04-27T12:43:53;3.57;;;2.07;;
10162;SDS011;5123;52.556;13.384;2023-04-27T12:46:27;4.67;;;1.97;;
10162;SDS011;5123;52.556;13.384;2023-04-27T12:49:00;7.83;;;1.90;;
10162;SDS011;5123;52.556;13.384;2023-04-27T12:51:32;2.57;;;1.80;;
10162;SDS011;5123;52.556;13.384;2023-04-27T12:54:07;5.60;;;1.90;;
10162;SDS011;5123;52.556;13.384;2023-04-27T12:56:40;3.00;;;1.77;;
10162;SDS011;5123;52.556;13.384;2023-04-27T12:59:14;2.17;;;1.80;;
10162;SDS011;5123;52.556;13.384;2023-04-27T13:01:48;3.03;;;2.10;;
10162;SDS011;5123;52.556;13.384;2023-04-27T13:04:22;2.30;;;1.70;;
10162;SDS011;5123;52.556;13.384;2023-04-27T13:06:55;2.53;;;1.90;;
10162;SDS011;5123;52.556;13.384;2023-04-27T13:09:30;3.67;;;2.10;;
10162;SDS011;5123;52.556;13.384;2023-04-27T13:12:03;6.03;;;2.13;;
10162;SDS011;5123;52.556;13.384;2023-04-27T13:14:37;2.97;;;1.87;;
10162;SDS011;5123;52.556;13.384;2023-04-27T13:17:12;2.87;;;2.17;;
10162;SDS011;5123;52.556;13.384;2023-04-27T13:19:45;6.77;;;2.93;;
10162;SDS011;5123;52.556;13.384;2023-04-27T13:22:18;3.23;;;2.23;;
10162;SDS011;5123;52.556;13.384;2023-04-27T13:24:52;4.03;;;2.00;;
10162;SDS011;5123;52.556;13.384;2023-04-27T13:27:25;2.30;;;2.10;;
10162;SDS011;5123;52.556;13.384;2023-04-27T13:30:00;4.57;;;2.53;;
10162;SDS011;5123;52.556;13.384;2023-04-27T13:32:33;3.33;;;2.07;;
10162;SDS011;5123;52.556;13.384;2023-04-27T13:35:06;2.00;;;1.77;;
10162;SDS011;5123;52.556;13.384;2023-04-27T13:37:41;7.53;;;2.10;;
10162;SDS011;5123;52.556;13.384;2023-04-27T13:40:13;2.63;;;1.80;;
10162;SDS011;5123;52.556;13.384;2023-04-27T13:42:47;2.37;;;1.63;;
10162;SDS011;5123;52.556;13.384;2023-04-27T13:45:21;2.83;;;1.87;;
10162;SDS011;5123;52.556;13.384;2023-04-27T13:47:56;3.77;;;1.60;;
10162;SDS011;5123;52.556;13.384;2023-04-27T13:50:31;2.60;;;1.73;;
10162;SDS011;5123;52.556;13.384;2023-04-27T13:53:04;4.93;;;1.63;;
10162;SDS011;5123;52.556;13.384;2023-04-27T13:55:46;2.07;;;1.67;;
10162;SDS011;5123;52.556;13.384;2023-04-27T13:58:19;3.77;;;1.80;;
10162;SDS011;5123;52.556;13.384;2023-04-27T14:00:57;4.53;;;1.77;;
10162;SDS011;5123;52.556;13.384;2023-04-27T14:03:30;1.97;;;1.77;;
10162;SDS011;5123;52.556;13.384;2023-04-27T14:06:04;2.63;;;1.83;;
10162;SDS011;5123;52.556;13.384;2023-04-27T14:08:40;3.30;;;1.83;;
10162;SDS011;5123;52.556;13.384;2023-04-27T14:11:13;3.00;;;1.97;;
10162;SDS011;5123;52.556;13.384;2023-04-27T14:13:46;2.37;;;1.80;;
10162;SDS011;5123;52.556;13.384;2023-04-27T14:16:21;2.40;;;2.17;;
10162;SDS011;5123;52.556;13.384;2023-04-27T14:18:55;4.53;;;1.67;;
10162;SDS011;5123;52.556;13.384;2023-04-27T14:21:27;3.70;;;2.00;;
10162;SDS011;5123;52.556;13.384;2023-04-27T14:24:00;4.60;;;1.97;;
10162;SDS011;5123;52.556;13.384;2023-04-27T14:26:33;2.37;;;1.90;;
10162;SDS011;5123;52.556;13.384;2023-04-27T14:29:06;3.40;;;2.30;;
10162;SDS011;5123;52.556;13.384;2023-04-27T14:31:40;1.90;;;1.77;;
10162;SDS011;5123;52.556;13.384;2023-04-27T14:34:13;3.57;;;2.13;;
10162;SDS011;5123;52.556;13.384;2023-04-27T14:36:46;1.50;;;1.40;;
10162;SDS011;5123;52.556;13.384;2023-04-27T14:39:19;3.27;;;2.10;;
10162;SDS011;5123;52.556;13.384;2023-04-27T14:41:51;2.83;;;1.80;;
10162;SDS011;5123;52.556;13.384;2023-04-27T14:44:24;7.43;;;2.07;;
10162;SDS011;5123;52.556;13.384;2023-04-27T14:46:58;3.13;;;1.60;;
10162;SDS011;5123;52.556;13.384;2023-04-27T14:49:32;11.47;;;2.30;;
10162;SDS011;5123;52.556;13.384;2023-04-27T14:52:04;3.20;;;1.90;;
10162;SDS011;5123;52.556;13.384;2023-04-27T14:54:37;3.97;;;1.70;;
10162;SDS011;5123;52.556;13.384;2023-04-27T14:57:12;3.67;;;2.00;;
10162;SDS011;5123;52.556;13.384;2023-04-27T14:59:44;4.83;;;2.13;;
10162;SDS011;5123;52.556;13.384;2023-04-27T15:02:21;2.60;;;1.77;;
10162;SDS011;5123;52.556;13.384;2023-04-27T15:04:54;3.27;;;1.93;;
10162;SDS011;5123;52.556;13.384;2023-04-27T15:07:29;4.20;;;1.80;;
10162;SDS011;5123;52.556;13.384;2023-04-27T15:10:01;2.87;;;2.03;;
10162;SDS011;5123;52.556;13.384;2023-04-27T15:12:37;2.50;;;1.90;;
10162;SDS011;5123;52.556;13.384;2023-04-27T15:15:10;2.80;;;1.57;;
10162;SDS011;5123;52.556;13.384;2023-04-27T15:17:45;4.80;;;1.90;;
10162;SDS011;5123;52.556;13.384;2023-04-27T15:20:18;2.90;;;1.50;;
10162;SDS011;5123;52.556;13.384;2023-04-27T15:22:51;3.40;;;2.37;;
10162;SDS011;5123;52.556;13.384;2023-04-27T15:25:24;2.70;;;1.60;;
10162;SDS011;5123;52.556;13.384;2023-04-27T15:27:57;5.37;;;2.10;;
10162;SDS011;5123;52.556;13.384;2023-04-27T15:30:31;2.73;;;1.93;;